createdAt,value
2018-09-17T00:00:50.518Z,5.90
2018-09-17T00:15:51.922Z,6.00
2018-09-17T00:30:52.007Z,5.35
2018-09-17T00:45:51.383Z,5.87
2018-09-17T01:00:50.972Z,5.50
2018-09-17T01:15:50.352Z,6.45
2018-09-17T01:30:53.053Z,5.50
2018-09-17T01:45:50.801Z,5.72
2018-09-17T02:00:51.225Z,6.90
2018-09-17T02:15:50.735Z,6.40
2018-09-17T02:30:50.642Z,6.60
2018-09-17T02:45:49.686Z,6.05
2018-09-17T03:00:49.678Z,5.90
2018-09-17T03:15:51.330Z,6.62
2018-09-17T03:30:50.203Z,7.20
2018-09-17T03:45:52.135Z,7.08
2018-09-17T04:00:50.457Z,7.10
2018-09-17T04:15:49.363Z,7.33
2018-09-17T04:30:50.466Z,8.03
2018-09-17T04:45:49.361Z,8.50
2018-09-17T05:00:51.149Z,7.87
2018-09-17T05:15:50.830Z,10.38
2018-09-17T05:30:52.842Z,9.73
2018-09-17T05:45:49.855Z,9.53
2018-09-17T06:00:51.025Z,10.78
2018-09-17T06:15:53.044Z,14.55
2018-09-17T06:30:52.545Z,9.15
2018-09-17T06:45:50.443Z,9.98
2018-09-17T07:00:50.487Z,11.30
2018-09-17T07:15:50.679Z,10.95
2018-09-17T07:30:50.715Z,12.10
2018-09-17T07:45:50.687Z,14.30
2018-09-17T08:00:50.628Z,12.13
2018-09-17T08:15:52.100Z,12.90
2018-09-17T08:30:51.261Z,16.27
2018-09-17T08:45:53.163Z,14.80
2018-09-17T09:00:56.173Z,15.98
2018-09-17T09:15:50.560Z,15.85
2018-09-17T09:30:50.462Z,17.12
2018-09-17T09:45:50.399Z,17.23
2018-09-17T10:00:55.707Z,17.10
2018-09-17T10:15:54.719Z,17.20
2018-09-17T10:30:50.352Z,15.85
2018-09-17T10:45:50.846Z,17.25
2018-09-17T11:00:50.983Z,16.85
2018-09-17T11:15:52.221Z,17.00
2018-09-17T11:30:50.273Z,15.80
2018-09-17T11:45:51.207Z,15.20
2018-09-17T12:00:56.372Z,15.53
2018-09-17T12:15:52.938Z,16.50
2018-09-17T12:30:50.399Z,17.62
2018-09-17T12:45:50.894Z,18.07
2018-09-17T13:00:50.863Z,17.55
2018-09-17T13:15:54.198Z,17.70
2018-09-17T13:30:51.792Z,17.12
2018-09-17T13:45:52.655Z,17.02
2018-09-17T14:00:51.149Z,16.97
2018-09-17T14:15:56.327Z,16.85
2018-09-17T14:30:50.528Z,15.38
2018-09-17T14:45:50.656Z,15.93
2018-09-17T15:00:50.647Z,17.23
2018-09-17T15:15:58.916Z,18.35
2018-09-17T15:30:50.684Z,16.80
2018-09-17T15:45:51.107Z,18.05
2018-09-17T16:00:51.148Z,16.00
2018-09-17T16:15:52.334Z,10.75
2018-09-17T16:30:50.121Z,11.10
2018-09-17T16:45:50.034Z,14.18
2018-09-17T17:00:53.261Z,12.55
2018-09-17T17:15:51.012Z,11.90
2018-09-17T17:30:50.552Z,13.50
2018-09-17T17:45:50.675Z,13.72
2018-09-17T18:00:50.593Z,15.32
2018-09-17T18:15:51.096Z,18.12
2018-09-17T18:30:53.475Z,20.00
2018-09-17T18:45:52.858Z,22.65
2018-09-17T19:00:57.189Z,23.38
2018-09-17T19:15:57.770Z,22.37
2018-09-17T19:30:50.641Z,22.00
2018-09-17T19:45:57.913Z,21.40
2018-09-17T20:00:50.956Z,20.17
2018-09-17T20:15:52.885Z,20.55
2018-09-17T20:30:50.375Z,17.87
2018-09-17T20:45:51.331Z,17.15
2018-09-17T21:00:50.814Z,16.70
2018-09-17T21:15:52.031Z,14.90
2018-09-17T21:30:50.431Z,14.30
2018-09-17T21:45:53.359Z,14.83
2018-09-17T22:00:58.697Z,14.78
2018-09-17T22:15:50.747Z,15.30
2018-09-17T22:30:50.600Z,15.65
2018-09-17T22:45:50.655Z,14.87
2018-09-17T23:00:51.828Z,14.03
2018-09-17T23:15:50.675Z,13.10
2018-09-17T23:30:51.000Z,14.00
2018-09-17T23:45:51.028Z,12.90
